McMinnville, OR (97128)

6:47 PM PDT on August 29, 2015 (GMT -0700)
NW Cypress Point | | Change Station
CLOSE
Current Station
Personal Weather Station
Location: McMinnville, OR
Elevation: 167 ft
Nearby Weather Stations

Elev 167 ft 45.22 °N, 123.22 °W | Updated 5 minutes ago

Mostly Cloudy
Mostly Cloudy
68.2 °F
Feels Like 68.2 °F
N
5.8
Wind Variable Wind from SW

Today
High -- | Low -- °F
--% Chance of Precip.
Yesterday
High -- | Low -- °F
Precip. -- in
6:30 AM 7:55 PM
Full, 100% visible
Pressure 29.83 in
Visibility 10.0 miles
Clouds Few 5000 ft
Mostly Cloudy 8000 ft
Dew Point 55 °F
Humidity 62%
Rainfall 0.25 in
Snow Depth Not available.
UV 1 out of 12
Pollen .50 out of 12
Air Quality Not available.
Flu Activity Not available.
METAR KMMV 300053Z AUTO 24015G22KT 10SM FEW050 BKN080 22/12 A2984 RMK AO2 SLP101 T02220117
Pressure 29.83 in
Visibility 10.0 miles
Clouds Few 5000 ft
Mostly Cloudy 8000 ft
Dew Point 55 °F
Humidity 62%
Rainfall 0.25 in
Snow Depth Not available.
UV 1 out of 12
Pollen .50 out of 12
Air Quality Not available.
Flu Activity Not available.
METAR KMMV 300053Z AUTO 24015G22KT 10SM FEW050 BKN080 22/12 A2984 RMK AO2 SLP101 T02220117

10-Day Weather Forecast

×

Almanac

Astronomy

Aug. 29, 2015 Rise Set
Actual Time
Civil Twilight
Nautical Twilight
Astronomical Twilight
Moon
Length of Visible Light
Length of Day
Tomorrow will be .
, % of the Moon is Illuminated

Today's Extremes

State Highs State Lows

Community

WunderPhotos

Upload Photos

1,850,826 photos uploaded!

WunderBlogs® & News

Nearby

Air Quality

  Air Quality AQ Index Pollutant
Not available.

Snow Depth

Station Depth Elevation

Earthquake Activity

City Distance Mag. Time & Date
Minimum magnitude displayed is 2.5.

Coastal Water Temperatures

Place Temperature

Stations

Nearby Weather Stations

Station Location Temp. Windchill Dew Point Humidity Wind Precip. Elev Updated Type